Tesuque Pueblo, New Mexico
Current Conditions -  °F | °C
As of 9:53 PM on Friday 24 Oct 2014 (Local Time) from KSAF Reporting Station
Clear Clear  
Wind Chill: 54°   Ceiling: Unl
Heat Index: 54°   Visibility: 10mi
Dew Point: 25°   Wind: 7mph
Humidity: 33%   Direction: 40°NE
Pressure: 30.32"   Gusts: NA
Location:  35.7017°N, 105.921°W
Report Text: KSAF 250353Z AUTO 04006KT 10SM CLR 12/M04 A3032 RMK AO2 SLP199 T01221039
Loading
Personal Weather Stations






























Interactive Weather Map
Tropical Storm Tracking
New forecast layout! Learn more

10-Day Weather Forecast

Advertisements
Track Severe Weather on mobile